Time,TemperatureF,DewpointF,PressureIn,WindDirection,WindDirectionDegrees,WindSpeedMPH,WindSpeedGustMPH,Humidity,HourlyPrecipIn,Conditions,Clouds,dailyrainin,SolarRadiationWatts/m^2,SoftwareType,DateUTC
2013-07-29 00:02:00,51.0,30.0,-100.00,North,6,0.0,0.0,45,0.00,,,0.00,0.000000,,2013-07-29 07:02:00,
2013-07-29 00:12:00,51.0,30.0,-100.00,North,6,0.0,0.0,45,0.00,,,0.00,0.000000,,2013-07-29 07:12:00,
2013-07-29 00:22:00,51.0,30.0,-100.00,North,6,0.0,0.0,45,0.00,,,0.00,0.000000,,2013-07-29 07:22:00,
2013-07-29 00:33:00,51.0,30.0,-100.00,North,6,0.0,0.0,45,0.00,,,0.00,0.000000,,2013-07-29 07:33:00,
2013-07-29 01:02:00,50.0,31.0,-100.00,North,9,0.0,0.0,48,0.00,,,0.00,0.000000,,2013-07-29 08:02:00,
2013-07-29 01:12:00,50.0,31.0,-100.00,North,9,0.0,0.0,48,0.00,,,0.00,0.000000,,2013-07-29 08:12:00,
2013-07-29 01:22:00,50.0,31.0,-100.00,North,9,0.0,0.0,48,0.00,,,0.00,0.000000,,2013-07-29 08:22:00,
2013-07-29 02:02:00,48.0,31.0,-100.00,NNW,342,0.0,0.0,51,0.00,,,-99.99,0.000000,,2013-07-29 09:02:00,
2013-07-29 02:12:00,48.0,31.0,-100.00,NNW,342,0.0,0.0,51,0.00,,,-99.99,0.000000,,2013-07-29 09:12:00,
2013-07-29 02:22:00,48.0,31.0,-100.00,NNW,342,0.0,0.0,51,0.00,,,-99.99,0.000000,,2013-07-29 09:22:00,
2013-07-29 03:24:00,48.0,33.0,-100.00,North,354,0.0,0.0,55,0.00,,,0.00,0.000000,,2013-07-29 10:24:00,
2013-07-29 03:33:00,48.0,33.0,-100.00,North,354,0.0,0.0,55,0.00,,,0.00,0.000000,,2013-07-29 10:33:00,
2013-07-29 04:22:00,49.0,37.0,-100.00,North,356,0.0,0.0,64,0.00,,,0.00,0.000000,,2013-07-29 11:22:00,
2013-07-29 05:05:00,49.0,39.0,-100.00,NNE,12,0.0,0.0,69,0.00,,,0.00,0.000000,,2013-07-29 12:05:00,
2013-07-29 07:03:00,51.0,32.0,-100.00,North,9,0.0,0.0,48,0.00,,,0.00,7.000000,,2013-07-29 14:03:00,
2013-07-29 07:12:00,51.0,32.0,-100.00,North,9,0.0,0.0,48,0.00,,,0.00,7.000000,,2013-07-29 14:12:00,
2013-07-29 07:33:00,51.0,32.0,-100.00,North,9,0.0,0.0,48,0.00,,,0.00,7.000000,,2013-07-29 14:33:00,
2013-07-29 09:34:00,74.0,28.0,-100.00,SSW,201,0.0,4.0,18,0.00,,,0.00,477.000000,,2013-07-29 16:34:00,
2013-07-29 18:05:00,76.0,25.0,-100.00,WNW,298,0.0,12.0,15,-99.99,,,0.00,545.000000,,2013-07-30 01:05:00,
2013-07-29 18:15:00,76.0,25.0,-100.00,WNW,298,0.0,12.0,15,-99.99,,,0.00,545.000000,,2013-07-30 01:15:00,
2013-07-29 18:23:00,76.0,25.0,-100.00,WNW,298,0.0,12.0,15,-99.99,,,0.00,545.000000,,2013-07-30 01:23:00,
2013-07-29 18:33:00,76.0,25.0,-100.00,WNW,298,0.0,12.0,15,-99.99,,,0.00,545.000000,,2013-07-30 01:33:00,
2013-07-29 19:04:00,69.0,26.0,-100.00,SSE,152,0.0,8.0,20,0.00,,,0.00,116.000000,,2013-07-30 02:04:00,
2013-07-29 19:13:00,69.0,26.0,-100.00,SSE,152,0.0,8.0,20,0.00,,,0.00,116.000000,,2013-07-30 02:13:00,
2013-07-29 19:23:00,69.0,26.0,-100.00,SSE,152,0.0,8.0,20,0.00,,,0.00,116.000000,,2013-07-30 02:23:00,
2013-07-29 19:34:00,69.0,26.0,-100.00,SSE,152,0.0,8.0,20,0.00,,,0.00,116.000000,,2013-07-30 02:34:00,
2013-07-29 20:33:00,67.0,32.0,-100.00,SE,143,0.0,10.0,27,0.00,,,0.00,31.000000,,2013-07-30 03:33:00,
2013-07-29 21:03:00,62.0,35.0,-100.00,ENE,60,0.0,5.0,37,0.00,,,0.00,3.000000,,2013-07-30 04:03:00,
2013-07-29 21:12:00,62.0,35.0,-100.00,ENE,60,0.0,5.0,37,0.00,,,0.00,3.000000,,2013-07-30 04:12:00,
2013-07-29 21:22:00,62.0,35.0,-100.00,ENE,60,0.0,5.0,37,0.00,,,0.00,3.000000,,2013-07-30 04:22:00,
2013-07-29 21:32:00,62.0,35.0,-100.00,ENE,60,0.0,5.0,37,0.00,,,0.00,3.000000,,2013-07-30 04:32:00,
2013-07-29 22:03:00,61.0,38.0,-100.00,ENE,70,0.0,5.0,43,0.00,,,0.00,0.000000,,2013-07-30 05:03:00,
2013-07-29 22:12:00,61.0,38.0,-100.00,ENE,70,0.0,5.0,43,0.00,,,0.00,0.000000,,2013-07-30 05:12:00,
2013-07-29 22:22:00,61.0,38.0,-100.00,ENE,70,0.0,5.0,43,0.00,,,0.00,0.000000,,2013-07-30 05:22:00,
2013-07-29 22:32:00,61.0,38.0,-100.00,ENE,70,0.0,5.0,43,0.00,,,0.00,0.000000,,2013-07-30 05:32:00,
2013-07-29 23:02:00,60.0,38.0,-100.00,East,79,0.0,8.0,44,0.00,,,0.00,0.000000,,2013-07-30 06:02:00,
2013-07-29 23:12:00,60.0,38.0,-100.00,East,79,0.0,8.0,44,0.00,,,0.00,0.000000,,2013-07-30 06:12:00,
2013-07-29 23:22:00,60.0,38.0,-100.00,East,79,0.0,8.0,44,0.00,,,0.00,0.000000,,2013-07-30 06:22:00,
2013-07-29 23:32:00,60.0,38.0,-100.00,East,79,0.0,8.0,44,0.00,,,0.00,0.000000,,2013-07-30 06:32:00,